createdAt,value
2018-04-26T00:01:48.359Z,99475.08
2018-04-26T00:05:50.826Z,99478.25
2018-04-26T00:09:53.303Z,99490.30
2018-04-26T00:13:55.777Z,99480.56
2018-04-26T00:17:58.230Z,99481.23
2018-04-26T00:22:00.719Z,99479.35
2018-04-26T00:26:03.206Z,99482.27
2018-04-26T00:30:05.665Z,99484.16
2018-04-26T00:34:08.118Z,99489.69
2018-04-26T00:38:10.589Z,99497.66
2018-04-26T00:42:13.054Z,99501.30
2018-04-26T00:46:15.535Z,99487.62
2018-04-26T00:50:17.986Z,99508.03
2018-04-26T00:54:20.472Z,99491.79
2018-04-26T00:58:22.923Z,99485.39
2018-04-26T01:02:25.391Z,99502.59
2018-04-26T01:06:27.881Z,99504.98
2018-04-26T01:10:30.382Z,99514.03
2018-04-26T01:14:32.880Z,99517.41
2018-04-26T01:18:35.334Z,99509.07
2018-04-26T01:22:37.807Z,99510.47
2018-04-26T01:26:40.283Z,99504.27
2018-04-26T01:30:42.726Z,99498.93
2018-04-26T01:34:45.219Z,99506.74
2018-04-26T01:38:47.712Z,99493.33
2018-04-26T01:42:50.197Z,99498.54
2018-04-26T01:46:52.646Z,99495.23
2018-04-26T01:50:55.116Z,99497.91
2018-04-26T01:54:57.596Z,99493.59
2018-04-26T01:59:00.038Z,99495.03
2018-04-26T02:03:02.518Z,99499.20
2018-04-26T02:07:05.008Z,99500.69
2018-04-26T02:11:07.515Z,99500.95
2018-04-26T02:15:10.008Z,99501.65
2018-04-26T02:19:13.551Z,99513.03
2018-04-26T02:23:16.007Z,99516.88
2018-04-26T02:27:18.482Z,99519.33
2018-04-26T02:31:20.928Z,99519.91
2018-04-26T02:35:23.425Z,99525.24
2018-04-26T02:39:25.899Z,99529.23
2018-04-26T02:43:28.384Z,99544.88
2018-04-26T02:47:30.831Z,99558.74
2018-04-26T02:51:33.311Z,99553.52
2018-04-26T02:55:35.772Z,99567.00
2018-04-26T02:59:38.261Z,99576.48
2018-04-26T03:03:40.703Z,99581.64
2018-04-26T03:07:43.215Z,99592.11
2018-04-26T03:11:45.696Z,99567.78
2018-04-26T03:15:48.166Z,99581.30
2018-04-26T03:19:50.638Z,99583.73
2018-04-26T03:23:53.114Z,99581.05
2018-04-26T03:27:55.571Z,99583.61
2018-04-26T03:31:58.043Z,99582.86
2018-04-26T03:36:00.534Z,99585.66
2018-04-26T03:40:03.008Z,99593.70
2018-04-26T03:44:05.501Z,99584.45
2018-04-26T03:48:07.981Z,99574.58
2018-04-26T03:52:10.456Z,99583.61
2018-04-26T03:56:12.947Z,99591.70
2018-04-26T04:00:27.221Z,99589.51
2018-04-26T04:04:41.416Z,99594.45
2018-04-26T04:08:43.896Z,99600.72
2018-04-26T04:12:46.365Z,99600.34
2018-04-26T04:16:48.852Z,99596.77
2018-04-26T04:20:51.321Z,99608.33
2018-04-26T04:24:53.802Z,99608.38
2018-04-26T04:28:56.265Z,99611.98
2018-04-26T04:32:58.730Z,99623.15
2018-04-26T04:37:01.216Z,99619.66
2018-04-26T04:41:03.690Z,99628.17
2018-04-26T04:45:06.148Z,99642.52
2018-04-26T04:49:08.616Z,99654.55
2018-04-26T04:53:11.082Z,99662.62
2018-04-26T04:57:13.601Z,99659.14
2018-04-26T05:01:16.058Z,99659.69
2018-04-26T05:05:18.546Z,99644.26
2018-04-26T05:09:20.999Z,99644.34
2018-04-26T05:13:23.474Z,99649.83
2018-04-26T05:17:25.955Z,99650.22
2018-04-26T05:21:28.450Z,99648.06
2018-04-26T05:25:30.898Z,99647.20
2018-04-26T05:29:33.379Z,99660.95
2018-04-26T05:33:36.823Z,99661.89
2018-04-26T05:37:39.302Z,99665.49
2018-04-26T05:41:41.755Z,99700.55
2018-04-26T05:45:44.255Z,99707.23
2018-04-26T05:49:46.718Z,99712.60
2018-04-26T05:53:49.195Z,99719.77
2018-04-26T05:57:51.673Z,99734.17
2018-04-26T06:01:54.122Z,99742.30
2018-04-26T06:05:56.600Z,99752.98
2018-04-26T06:09:59.085Z,99759.75
2018-04-26T06:14:02.535Z,99755.36
2018-04-26T06:18:05.020Z,99755.75
2018-04-26T06:22:07.509Z,99762.41
2018-04-26T06:26:09.991Z,99757.63
2018-04-26T06:30:12.439Z,99745.64
2018-04-26T06:34:14.917Z,99741.19
2018-04-26T06:38:17.389Z,99748.31
2018-04-26T06:42:19.898Z,99753.27
2018-04-26T06:46:22.327Z,99760.43
2018-04-26T06:50:24.801Z,99754.74
2018-04-26T06:54:27.286Z,99747.80
2018-04-26T06:58:29.734Z,99769.39
2018-04-26T07:02:32.203Z,99769.95
2018-04-26T07:06:34.685Z,99751.77
2018-04-26T07:10:37.161Z,99733.81
2018-04-26T07:14:39.649Z,99746.72
2018-04-26T07:18:42.098Z,99761.28
2018-04-26T07:22:44.563Z,99772.28
2018-04-26T07:26:47.042Z,99775.14
2018-04-26T07:30:49.495Z,99792.46
2018-04-26T07:34:51.971Z,99801.86
2018-04-26T07:38:54.456Z,99799.83
2018-04-26T07:42:56.934Z,99786.50
2018-04-26T07:46:59.417Z,99786.10
2018-04-26T07:51:01.903Z,99804.72
2018-04-26T07:55:04.370Z,99806.97
2018-04-26T07:59:06.852Z,99798.96
2018-04-26T08:03:09.333Z,99798.96
2018-04-26T08:07:11.780Z,99798.22
2018-04-26T08:11:14.258Z,99793.40
2018-04-26T08:15:16.739Z,99797.88
2018-04-26T08:19:19.206Z,99797.45
2018-04-26T08:23:22.551Z,99788.98
2018-04-26T08:27:25.018Z,99785.45
2018-04-26T08:31:27.486Z,99796.52
2018-04-26T08:35:29.979Z,99796.39
2018-04-26T08:39:32.454Z,99816.74
2018-04-26T08:43:42.039Z,99820.23
2018-04-26T08:47:50.525Z,99826.30
2018-04-26T08:51:53.023Z,99818.87
2018-04-26T09:05:11.985Z,99814.67
2018-04-26T09:09:14.743Z,99829.78
2018-04-26T09:13:17.741Z,99829.44
2018-04-26T09:17:20.793Z,99826.81
2018-04-26T09:21:23.663Z,99818.98
2018-04-26T09:25:26.483Z,99824.76
2018-04-26T09:29:29.333Z,99831.06
2018-04-26T09:33:33.225Z,99837.30
2018-04-26T09:37:38.810Z,99839.09
2018-04-26T09:41:41.456Z,99853.73
2018-04-26T09:45:44.169Z,99858.18
2018-04-26T09:49:46.794Z,99859.54
2018-04-26T09:53:49.412Z,99863.09
2018-04-26T09:57:52.109Z,99854.66
2018-04-26T10:02:00.297Z,99867.16
2018-04-26T10:06:02.764Z,99866.07
2018-04-26T10:10:05.247Z,99876.37
2018-04-26T10:14:07.755Z,99884.34
2018-04-26T10:18:10.210Z,99884.70
2018-04-26T10:22:12.694Z,99883.02
2018-04-26T10:26:15.195Z,99879.53
2018-04-26T10:30:17.662Z,99878.22
2018-04-26T10:34:23.132Z,99872.84
2018-04-26T10:38:25.599Z,99879.08
2018-04-26T10:42:28.077Z,99870.19
2018-04-26T10:51:10.942Z,99861.38
2018-04-26T11:04:34.702Z,99865.91
2018-04-26T11:08:37.457Z,99862.35
2018-04-26T11:12:40.131Z,99866.41
2018-04-26T11:16:42.765Z,99862.94
2018-04-26T11:25:13.672Z,99877.72
2018-04-26T11:29:16.450Z,99880.42
2018-04-26T11:33:18.957Z,99876.08
2018-04-26T11:37:21.741Z,99873.45
2018-04-26T11:41:24.260Z,99869.97
2018-04-26T11:45:26.786Z,99867.80
2018-04-26T11:49:29.294Z,99863.45
2018-04-26T11:53:31.816Z,99868.77
2018-04-26T11:57:36.646Z,99866.55
2018-04-26T12:01:39.193Z,99864.68
2018-04-26T12:05:42.131Z,99874.59
2018-04-26T12:09:46.749Z,99866.73
2018-04-26T12:13:54.378Z,99878.16
2018-04-26T13:59:48.155Z,99933.19
2018-04-26T14:03:55.484Z,99926.56
2018-04-26T14:12:51.474Z,99909.75
2018-04-26T14:16:54.232Z,99908.86
2018-04-26T14:20:56.734Z,99924.31
2018-04-26T14:29:57.007Z,99968.91
2018-04-26T14:38:35.528Z,99955.01
2018-04-26T14:42:38.031Z,99945.38
2018-04-26T14:46:40.513Z,99945.47
2018-04-26T14:50:43.011Z,99941.08
2018-04-26T14:54:45.523Z,99926.88
2018-04-26T14:58:48.110Z,99928.62
2018-04-26T15:02:50.744Z,99927.34
2018-04-26T15:06:53.362Z,99932.71
2018-04-26T15:10:56.009Z,99922.14
2018-04-26T15:14:59.263Z,99926.16
2018-04-26T15:19:02.592Z,99927.56
2018-04-26T15:23:05.146Z,99929.42
2018-04-26T15:27:07.746Z,99918.83
2018-04-26T15:31:10.858Z,99933.86
2018-04-26T15:35:13.591Z,99934.77
2018-04-26T15:39:16.143Z,99919.31
2018-04-26T15:43:18.711Z,99925.56
2018-04-26T15:47:21.349Z,99935.80
2018-04-26T15:51:23.915Z,99911.14
2018-04-26T15:55:38.380Z,99905.90
2018-04-26T15:59:52.815Z,99916.98
2018-04-26T16:04:07.254Z,99908.17
2018-04-26T16:08:27.222Z,99918.34
2018-04-26T16:12:47.130Z,99918.30
2018-04-26T16:21:51.841Z,99941.28
2018-04-26T16:26:06.346Z,99946.09
2018-04-26T16:30:20.647Z,99946.11
2018-04-26T16:34:49.650Z,99928.39
2018-04-26T16:39:24.406Z,99929.22
2018-04-26T16:43:26.882Z,99925.26
2018-04-26T16:47:29.329Z,99929.66
2018-04-26T16:51:31.809Z,99933.17
2018-04-26T16:55:34.266Z,99936.72
2018-04-26T16:59:36.784Z,99938.95
2018-04-26T17:03:39.268Z,99944.71
2018-04-26T17:07:42.414Z,99944.29
2018-04-26T17:11:44.992Z,99938.13
2018-04-26T17:15:47.484Z,99950.06
2018-04-26T17:19:49.986Z,99951.00
2018-04-26T17:23:52.431Z,99952.38
2018-04-26T17:27:54.949Z,99962.56
2018-04-26T17:31:57.422Z,99954.66
2018-04-26T17:35:59.866Z,99956.44
2018-04-26T17:40:02.358Z,99956.90
2018-04-26T17:44:04.916Z,99951.17
2018-04-26T17:48:07.488Z,99945.45
2018-04-26T17:52:09.960Z,99958.73
2018-04-26T17:56:12.434Z,99963.61
2018-04-26T18:00:14.919Z,99953.92
2018-04-26T18:04:17.404Z,99972.03
2018-04-26T18:08:19.888Z,99973.80
2018-04-26T18:12:22.371Z,99968.11
2018-04-26T18:16:24.904Z,99973.88
2018-04-26T18:20:27.379Z,99972.56
2018-04-26T18:24:29.863Z,99972.63
2018-04-26T18:28:32.421Z,99984.10
2018-04-26T18:32:34.901Z,99995.58
2018-04-26T18:36:37.371Z,100003.52
2018-04-26T18:40:39.872Z,100014.58
2018-04-26T18:44:42.419Z,100021.63
2018-04-26T18:48:44.905Z,100018.12
2018-04-26T18:52:47.376Z,100032.69
2018-04-26T18:56:49.855Z,100036.23
2018-04-26T19:00:52.333Z,100047.70
2018-04-26T19:04:54.814Z,100046.38
2018-04-26T19:08:57.264Z,100047.27
2018-04-26T19:12:59.750Z,100054.34
2018-04-26T19:17:02.247Z,100053.89
2018-04-26T19:21:04.796Z,100060.09
2018-04-26T19:25:07.216Z,100063.64
2018-04-26T19:29:09.686Z,100073.79
2018-04-26T19:33:12.152Z,100074.23
2018-04-26T19:37:15.743Z,100079.06
2018-04-26T19:41:18.227Z,100082.17
2018-04-26T19:45:20.714Z,100089.23
2018-04-26T19:49:23.216Z,100085.69
2018-04-26T19:53:25.675Z,100085.70
2018-04-26T19:57:28.161Z,100088.37
2018-04-26T20:01:30.652Z,100090.14
2018-04-26T20:05:33.150Z,100102.48
2018-04-26T20:09:35.602Z,100104.26
2018-04-26T20:13:38.081Z,100101.20
2018-04-26T20:17:40.558Z,100110.45
2018-04-26T20:21:43.020Z,100118.38
2018-04-26T20:25:45.526Z,100121.94
2018-04-26T20:29:48.028Z,100122.39
2018-04-26T20:33:50.491Z,100129.45
2018-04-26T20:37:52.974Z,100131.65
2018-04-26T20:41:55.501Z,100132.11
2018-04-26T20:45:57.998Z,100134.30
2018-04-26T20:50:00.481Z,100126.81
2018-04-26T20:54:02.985Z,100126.40
2018-04-26T20:58:05.442Z,100118.02
2018-04-26T21:02:07.935Z,100132.14
2018-04-26T21:06:10.478Z,100125.95
2018-04-26T21:10:12.994Z,100131.69
2018-04-26T21:14:15.561Z,100136.09
2018-04-26T21:18:17.992Z,100131.27
2018-04-26T21:22:20.488Z,100131.25
2018-04-26T21:26:22.975Z,100140.95
2018-04-26T21:30:25.465Z,100155.95
2018-04-26T21:34:27.946Z,100150.64
2018-04-26T21:38:30.435Z,100162.98
2018-04-26T21:42:32.910Z,100159.47
2018-04-26T22:09:44.873Z,100183.25
2018-04-26T22:13:47.437Z,100188.08
2018-04-26T22:36:25.970Z,100186.77
2018-04-26T22:40:28.625Z,100196.01
2018-04-26T23:02:52.599Z,100211.86
2018-04-26T23:06:55.201Z,100220.22
2018-04-26T23:10:57.773Z,100216.67
2018-04-26T23:15:00.420Z,100225.47
2018-04-26T23:19:04.919Z,100223.70
2018-04-26T23:23:07.523Z,100222.81
2018-04-26T23:27:10.128Z,100221.52
2018-04-26T23:31:12.720Z,100225.02
2018-04-26T23:53:53.611Z,100241.70
2018-04-26T23:57:56.182Z,100236.83
